Time;durP1;ratioP1;P1;durP2;ratioP2;P2;SDS_P1;SDS_P2;PMS_P1;PMS_P2;Temp;Humidity;BMP_temperature;BMP_pressure;BME280_temperature;BME280_humidity;BME280_pressure;Samples;Min_cycle;Max_cycle;Signal;HPM_P1;HPM_P2
2023/01/13 00:00:52;;;;;;;25.23;5.53;;;8.50;99.90;;;;;;5070742;28;20048;-85
2023/01/13 00:03:17;;;;;;;32.58;6.85;;;7.70;99.90;;;;;;5054853;28;20051;-84
2023/01/13 00:05:43;;;;;;;28.00;5.68;;;8.50;99.90;;;;;;5068568;28;20044;-84
2023/01/13 00:08:09;;;;;;;27.38;5.43;;;8.50;99.90;;;;;;5071238;28;20417;-85
2023/01/13 00:10:35;;;;;;;27.55;5.90;;;7.50;99.90;;;;;;5043907;28;20459;-85
2023/01/13 00:13:03;;;;;;;35.25;6.90;;;8.50;99.90;;;;;;5061029;28;20607;-86
2023/01/13 00:15:28;;;;;;;33.60;5.85;;;8.50;99.90;;;;;;5072520;28;20148;-84
2023/01/13 00:17:54;;;;;;;25.30;5.28;;;7.30;99.90;;;;;;5070550;28;20466;-84
2023/01/13 00:20:20;;;;;;;25.30;5.38;;;8.50;99.90;;;;;;5076618;28;20489;-86
2023/01/13 00:22:46;;;;;;;28.40;5.53;;;7.10;99.90;;;;;;5026996;28;20048;-86
2023/01/13 00:25:11;;;;;;;22.52;5.13;;;8.50;99.90;;;;;;5068769;28;20044;-85
2023/01/13 00:27:37;;;;;;;37.47;6.07;;;8.50;99.90;;;;;;5061473;28;20168;-86
2023/01/13 00:30:04;;;;;;;25.83;5.53;;;8.50;99.90;;;;;;5062118;28;20135;-85
2023/01/13 00:32:30;;;;;;;25.05;5.78;;;8.50;99.90;;;;;;5042176;28;20128;-84
2023/01/13 00:34:57;;;;;;;25.08;5.72;;;8.60;99.90;;;;;;5037629;28;20123;-85
2023/01/13 00:37:24;;;;;;;28.27;7.13;;;8.60;99.90;;;;;;5045875;28;20601;-84
2023/01/13 00:39:50;;;;;;;32.88;5.90;;;8.50;99.90;;;;;;5047105;28;20076;-83
2023/01/13 00:45:04;;;;;;;33.33;5.95;;;8.50;99.90;;;;;;5075396;28;20533;-85
2023/01/13 00:47:30;;;;;;;29.92;5.90;;;8.50;99.90;;;;;;5045248;28;20047;-85
2023/01/13 00:49:59;;;;;;;29.83;6.00;;;8.60;99.90;;;;;;5060494;28;20096;-87
2023/01/13 00:52:25;;;;;;;29.38;5.15;;;9.40;99.90;;;;;;5078633;28;20049;-85
2023/01/13 00:54:51;;;;;;;28.55;6.22;;;8.80;99.90;;;;;;5074792;28;20040;-86
2023/01/13 00:57:17;;;;;;;26.35;5.80;;;8.50;99.90;;;;;;5074413;28;20051;-85
2023/01/13 00:59:43;;;;;;;27.52;6.13;;;8.50;99.90;;;;;;5088137;28;20051;-86
2023/01/13 01:02:09;;;;;;;29.50;5.82;;;8.50;99.90;;;;;;5085144;28;20041;-88
2023/01/13 01:04:35;;;;;;;25.67;5.53;;;8.50;99.90;;;;;;5057243;28;20076;-85
2023/01/13 01:07:00;;;;;;;25.83;5.60;;;8.40;99.90;;;;;;5050216;28;20051;-85
2023/01/13 01:09:31;;;;;;;29.98;5.47;;;8.50;99.90;;;;;;5038920;28;20044;-86
2023/01/13 01:11:58;;;;;;;34.25;5.63;;;8.50;99.90;;;;;;5055275;28;20068;-85
2023/01/13 01:14:26;;;;;;;29.90;5.57;;;8.80;99.90;;;;;;5053697;28;20478;-85
2023/01/13 01:16:53;;;;;;;30.50;5.50;;;8.50;99.90;;;;;;5069175;28;20086;-85
2023/01/13 01:19:19;;;;;;;27.80;5.10;;;8.30;99.90;;;;;;5060844;28;20549;-85
2023/01/13 01:21:45;;;;;;;31.90;5.50;;;8.50;99.90;;;;;;5495969;23;20057;-81
2023/01/13 01:24:17;;;;;;;29.40;5.38;;;8.40;99.90;;;;;;4984504;28;20520;-81
2023/01/13 01:26:43;;;;;;;32.45;5.60;;;8.30;99.90;;;;;;4988099;28;20046;-80
2023/01/13 01:29:13;;;;;;;30.20;6.30;;;7.00;99.90;;;;;;4965208;28;20173;-81
2023/01/13 01:31:41;;;;;;;24.90;5.15;;;8.30;99.90;;;;;;4998623;28;20045;-84
2023/01/13 01:34:07;;;;;;;28.05;5.05;;;8.30;99.90;;;;;;4983010;28;20522;-83
2023/01/13 01:36:35;;;;;;;28.60;5.65;;;8.40;99.90;;;;;;4971139;28;20042;-83
2023/01/13 01:39:00;;;;;;;29.05;5.82;;;8.40;99.90;;;;;;4971986;28;20045;-83
2023/01/13 01:41:30;;;;;;;27.65;7.05;;;8.40;99.90;;;;;;4971319;28;20100;-83
2023/01/13 01:44:01;;;;;;;38.40;6.28;;;8.40;99.90;;;;;;4984690;28;20077;-83
2023/01/13 01:46:36;;;;;;;33.22;6.60;;;8.50;99.90;;;;;;4984472;28;20054;-82
2023/01/13 01:49:30;;;;;;;30.63;5.80;;;8.40;99.90;;;;;;4984952;28;20077;-83
2023/01/13 01:52:00;;;;;;;32.53;5.85;;;8.40;99.90;;;;;;4986777;28;20057;-83
2023/01/13 01:54:38;;;;;;;29.02;6.03;;;8.40;99.90;;;;;;4999020;28;20046;-82
2023/01/13 01:57:09;;;;;;;36.08;6.90;;;8.40;99.90;;;;;;4986249;28;20088;-83
2023/01/13 01:59:36;;;;;;;32.38;6.03;;;8.40;99.90;;;;;;4996702;28;20046;-81
2023/01/13 02:02:02;;;;;;;25.48;4.70;;;8.40;99.90;;;;;;4996602;28;20131;-82
2023/01/13 02:04:36;;;;;;;31.92;5.55;;;8.40;99.90;;;;;;4970951;28;20690;-82
2023/01/13 02:07:03;;;;;;;33.78;6.10;;;8.50;99.90;;;;;;4985694;28;20057;-82
2023/01/13 02:09:29;;;;;;;29.48;5.50;;;8.30;99.90;;;;;;4951133;28;20038;-82
2023/01/13 02:14:41;;;;;;;33.05;6.35;;;8.40;99.90;;;;;;4970409;28;20058;-82
2023/01/13 02:17:20;;;;;;;33.60;6.07;;;8.40;99.90;;;;;;4951885;28;20049;-83
2023/01/13 02:20:32;;;;;;;32.20;5.95;;;7.70;99.90;;;;;;4978612;28;20046;-83
2023/01/13 02:26:07;;;;;;;32.83;6.32;;;8.30;99.90;;;;;;5013650;28;20065;-82
2023/01/13 02:32:07;;;;;;;31.88;6.72;;;8.20;99.90;;;;;;4969926;28;20646;-83
2023/01/13 02:34:46;;;;;;;25.38;6.03;;;8.20;99.90;;;;;;4986186;28;20049;-83
2023/01/13 02:37:17;;;;;;;27.60;5.70;;;7.50;99.90;;;;;;4987996;28;20042;-84
2023/01/13 02:39:58;;;;;;;35.05;5.80;;;8.30;99.90;;;;;;4987610;28;20054;-82
2023/01/13 02:45:25;;;;;;;30.80;6.00;;;8.30;99.90;;;;;;4995302;28;20057;-83
2023/01/13 02:47:56;;;;;;;28.08;5.93;;;8.30;99.90;;;;;;4986481;28;20638;-81
2023/01/13 02:50:40;;;;;;;24.33;5.40;;;8.30;99.90;;;;;;4987395;28;20052;-83
2023/01/13 02:53:26;;;;;;;29.23;6.03;;;8.30;99.90;;;;;;4985434;28;20442;-81
2023/01/13 02:55:54;;;;;;;31.10;5.65;;;8.30;99.90;;;;;;4971454;28;20141;-83
2023/01/13 02:58:28;;;;;;;25.98;5.03;;;8.40;99.90;;;;;;4985785;28;20104;-82
2023/01/13 03:00:54;;;;;;;26.17;5.03;;;8.30;99.90;;;;;;4979625;28;20050;-81
2023/01/13 03:03:20;;;;;;;33.22;5.43;;;8.30;99.90;;;;;;4978859;28;20042;-81
2023/01/13 03:05:50;;;;;;;22.50;4.63;;;8.30;99.90;;;;;;4970965;28;20038;-81
2023/01/13 03:08:46;;;;;;;23.25;4.40;;;7.20;99.90;;;;;;4980760;28;20049;-80
2023/01/13 03:11:14;;;;;;;22.70;4.40;;;8.30;99.90;;;;;;4981877;28;20054;-84
2023/01/13 03:13:55;;;;;;;24.02;3.65;;;8.40;99.90;;;;;;4990143;28;20075;-82
2023/01/13 03:16:27;;;;;;;18.63;3.60;;;8.40;99.90;;;;;;4990080;28;20112;-83
2023/01/13 03:19:38;;;;;;;16.52;3.75;;;8.40;99.90;;;;;;4999049;28;20045;-84
2023/01/13 03:22:27;;;;;;;21.38;3.55;;;8.40;99.90;;;;;;4980760;28;20061;-84
2023/01/13 03:25:10;;;;;;;18.38;4.50;;;8.40;99.90;;;;;;4997751;28;20061;-84
2023/01/13 03:28:01;;;;;;;23.40;4.80;;;8.40;99.90;;;;;;4989983;28;20144;-84
2023/01/13 03:30:42;;;;;;;20.13;4.32;;;8.40;99.90;;;;;;4988413;28;20042;-82
2023/01/13 03:33:34;;;;;;;22.92;4.35;;;8.30;99.90;;;;;;5005891;28;20042;-83
2023/01/13 03:36:09;;;;;;;25.90;4.60;;;8.30;99.90;;;;;;4987039;28;20033;-83
2023/01/13 03:38:50;;;;;;;23.00;4.53;;;8.30;99.90;;;;;;4998753;28;20145;-81
2023/01/13 03:41:32;;;;;;;21.80;4.60;;;8.30;99.90;;;;;;5005129;28;20113;-84
2023/01/13 03:44:23;;;;;;;21.45;4.85;;;8.20;99.90;;;;;;4983193;28;20058;-83
2023/01/13 03:47:17;;;;;;;25.98;4.40;;;8.20;99.90;;;;;;5006060;28;20054;-83
2023/01/13 03:50:22;;;;;;;16.60;3.90;;;8.20;99.90;;;;;;4989099;28;20050;-81
2023/01/13 03:53:05;;;;;;;21.10;4.50;;;8.20;99.90;;;;;;4984690;28;20101;-81
2023/01/13 03:55:36;;;;;;;21.15;5.20;;;8.20;99.90;;;;;;4987156;28;20042;-82
2023/01/13 03:58:25;;;;;;;23.08;4.85;;;8.20;99.90;;;;;;4998021;28;20073;-83
2023/01/13 04:01:11;;;;;;;23.55;4.65;;;8.20;99.90;;;;;;4987733;28;20403;-83
2023/01/13 04:03:58;;;;;;;20.75;4.85;;;8.30;99.90;;;;;;5005316;28;20468;-82
2023/01/13 04:06:41;;;;;;;16.65;3.90;;;8.30;99.90;;;;;;4984897;28;20038;-81
2023/01/13 04:09:14;;;;;;;19.77;3.85;;;8.30;99.90;;;;;;4984109;28;20049;-83
2023/01/13 04:12:19;;;;;;;18.63;4.03;;;8.30;99.90;;;;;;4986045;28;20163;-81
2023/01/13 04:14:45;;;;;;;22.02;4.65;;;7.50;99.90;;;;;;4990646;28;20056;-82
2023/01/13 04:17:11;;;;;;;24.98;4.25;;;8.30;99.90;;;;;;4965946;28;20050;-82
2023/01/13 04:19:37;;;;;;;22.63;5.05;;;8.40;99.90;;;;;;4988801;28;20053;-82
2023/01/13 04:22:03;;;;;;;22.70;4.13;;;8.40;99.90;;;;;;4971229;28;20062;-82
2023/01/13 04:24:29;;;;;;;20.25;3.72;;;8.40;99.90;;;;;;5004556;28;20054;-82
2023/01/13 04:26:55;;;;;;;16.83;4.25;;;8.30;99.90;;;;;;4971003;28;20045;-81
2023/01/13 04:29:21;;;;;;;22.90;4.18;;;8.50;99.90;;;;;;4967687;28;20061;-82
2023/01/13 04:31:47;;;;;;;19.50;4.22;;;8.40;99.90;;;;;;4970462;28;20057;-81
2023/01/13 04:34:13;;;;;;;22.80;4.38;;;8.40;99.90;;;;;;4988292;28;20104;-84
2023/01/13 04:36:43;;;;;;;21.40;3.78;;;8.40;99.90;;;;;;5004688;28;20181;-83
2023/01/13 04:39:09;;;;;;;23.73;3.83;;;8.40;99.90;;;;;;4969438;28;20098;-83
2023/01/13 04:44:22;;;;;;;19.15;4.22;;;8.40;99.90;;;;;;4999304;28;20062;-84
2023/01/13 04:46:51;;;;;;;26.45;4.80;;;8.40;99.90;;;;;;5004767;28;20038;-81
2023/01/13 04:49:17;;;;;;;23.40;4.65;;;8.40;99.90;;;;;;4988239;28;20057;-82
2023/01/13 04:51:42;;;;;;;26.80;5.50;;;8.40;99.90;;;;;;4966185;28;20045;-82
2023/01/13 04:54:11;;;;;;;25.13;5.57;;;8.40;99.90;;;;;;4986909;28;20103;-84
2023/01/13 04:56:37;;;;;;;26.70;4.53;;;8.40;99.90;;;;;;4998024;28;20128;-81
2023/01/13 04:59:03;;;;;;;18.65;3.95;;;8.40;99.90;;;;;;4989191;28;20034;-81
2023/01/13 05:01:29;;;;;;;21.33;4.40;;;8.50;99.90;;;;;;4964648;28;20050;-82
2023/01/13 05:03:57;;;;;;;24.75;4.75;;;8.50;99.90;;;;;;5004408;28;20495;-83
2023/01/13 05:06:23;;;;;;;24.75;5.00;;;8.50;99.90;;;;;;4970493;28;20123;-83
2023/01/13 05:08:49;;;;;;;23.33;4.80;;;8.40;99.90;;;;;;4972798;28;20045;-82
2023/01/13 05:17:01;;;;;;;28.17;4.60;;;8.50;99.90;;;;;;4985119;28;20045;-82
2023/01/13 05:19:38;;;;;;;21.80;4.43;;;8.50;99.90;;;;;;4986132;28;20042;-80
2023/01/13 05:27:33;;;;;;;24.33;5.05;;;8.50;99.90;;;;;;4984833;28;20058;-82
2023/01/13 05:29:59;;;;;;;21.42;4.53;;;8.50;99.90;;;;;;4971207;28;20050;-81
2023/01/13 05:32:28;;;;;;;21.45;4.70;;;8.50;99.90;;;;;;4969881;28;20053;-85
2023/01/13 05:34:54;;;;;;;20.52;4.53;;;8.50;99.90;;;;;;4986420;28;20053;-83
2023/01/13 05:37:21;;;;;;;18.45;4.45;;;8.50;99.90;;;;;;4965936;28;20147;-82
2023/01/13 05:45:19;;;;;;;23.25;4.80;;;8.50;99.90;;;;;;5015653;28;20045;-80
2023/01/13 05:47:55;;;;;;;17.60;4.03;;;8.40;99.90;;;;;;4964618;28;20069;-82
2023/01/13 05:50:21;;;;;;;;;;;8.40;99.90;;;;;;4971971;28;20504;-81
2023/01/13 05:52:47;;;;;;;21.10;5.13;;;7.20;99.90;;;;;;5000035;28;19921;-82
2023/01/13 05:55:13;;;;;;;23.50;4.00;;;8.40;99.90;;;;;;4951586;28;20115;-80
2023/01/13 05:57:39;;;;;;;29.35;5.40;;;8.40;99.90;;;;;;4970727;28;20370;-80
2023/01/13 06:00:08;;;;;;;22.77;4.55;;;8.00;99.90;;;;;;4997732;28;20057;-81
2023/01/13 06:02:34;;;;;;;24.48;5.53;;;8.40;99.90;;;;;;4986564;28;20057;-83
2023/01/13 06:05:00;;;;;;;25.20;4.47;;;8.40;99.90;;;;;;4968266;28;20432;-81
2023/01/13 06:07:28;;;;;;;30.60;5.30;;;8.50;99.90;;;;;;4970784;28;20509;-83
2023/01/13 06:09:54;;;;;;;19.13;4.15;;;8.50;99.90;;;;;;4968113;28;20045;-78
2023/01/13 06:12:20;;;;;;;20.55;4.85;;;8.50;99.90;;;;;;4981826;28;20054;-80
2023/01/13 06:14:46;;;;;;;24.10;4.40;;;8.50;99.90;;;;;;4969836;28;20402;-81
2023/01/13 06:17:13;;;;;;;21.42;4.25;;;8.60;99.90;;;;;;4980844;28;20088;-82
2023/01/13 06:19:41;;;;;;;22.33;4.75;;;8.60;99.90;;;;;;4980836;28;20510;-82
2023/01/13 06:22:22;;;;;;;22.05;4.15;;;8.60;99.90;;;;;;4986456;28;20057;-83
2023/01/13 06:24:52;;;;;;;23.27;4.57;;;8.60;99.90;;;;;;4983232;28;20057;-83
2023/01/13 06:27:20;;;;;;;21.05;4.10;;;8.80;99.90;;;;;;4980766;28;20049;-81
2023/01/13 06:29:49;;;;;;;17.85;3.38;;;;;;;;;;4986032;28;20081;-82
2023/01/13 06:32:24;;;;;;;23.60;4.65;;;9.10;99.90;;;;;;4972962;28;20050;-81
2023/01/13 06:35:04;;;;;;;18.15;3.70;;;8.40;99.90;;;;;;4988625;28;20046;-82
2023/01/13 06:37:32;;;;;;;17.30;3.75;;;8.40;99.90;;;;;;4993587;28;20050;-82
2023/01/13 06:40:00;;;;;;;25.25;3.92;;;8.30;99.90;;;;;;5000936;28;20384;-82
2023/01/13 06:45:17;;;;;;;21.67;3.75;;;8.40;99.90;;;;;;5009595;28;20050;-81
2023/01/13 06:47:43;;;;;;;18.02;3.53;;;9.70;99.90;;;;;;4969218;28;20095;-80
2023/01/13 06:50:09;;;;;;;18.50;3.67;;;8.40;99.90;;;;;;5000752;28;20042;-79
2023/01/13 06:52:35;;;;;;;17.45;3.88;;;8.30;99.90;;;;;;4979945;28;20503;-81
2023/01/13 06:55:01;;;;;;;22.30;4.75;;;8.40;99.90;;;;;;4982347;28;20080;-82
2023/01/13 06:57:31;;;;;;;23.75;4.82;;;8.40;99.90;;;;;;4978407;28;20531;-83
2023/01/13 06:59:58;;;;;;;18.42;4.53;;;8.40;99.90;;;;;;4987693;28;20049;-82
2023/01/13 07:02:24;;;;;;;27.77;4.32;;;8.20;99.90;;;;;;4986701;28;20495;-83
2023/01/13 07:04:50;;;;;;;19.17;4.28;;;8.30;99.90;;;;;;4987097;28;20045;-82
2023/01/13 07:07:16;;;;;;;21.20;4.43;;;8.30;99.90;;;;;;4987135;28;20387;-79
2023/01/13 07:10:00;;;;;;;23.83;4.85;;;8.40;99.90;;;;;;4998894;28;20088;-80
2023/01/13 07:12:26;;;;;;;19.85;5.68;;;7.60;99.90;;;;;;4983823;28;20052;-82
2023/01/13 07:17:47;;;;;;;22.33;4.45;;;8.40;99.90;;;;;;4972484;28;20062;-82
2023/01/13 07:20:15;;;;;;;19.05;3.88;;;7.60;99.90;;;;;;4982458;28;20383;-83
2023/01/13 07:22:43;;;;;;;25.33;4.40;;;8.50;99.90;;;;;;4970138;28;20858;-80
2023/01/13 07:25:09;;;;;;;26.17;5.72;;;8.50;99.90;;;;;;5002722;28;20089;-82
2023/01/13 07:27:39;;;;;;;21.15;4.22;;;8.60;99.90;;;;;;4982100;28;20072;-83
2023/01/13 07:30:05;;;;;;;22.10;4.40;;;8.50;99.90;;;;;;4995736;28;20061;-82
2023/01/13 07:32:34;;;;;;;27.80;5.00;;;8.60;99.90;;;;;;4987051;28;20042;-80
2023/01/13 07:35:04;;;;;;;22.45;4.63;;;8.60;99.90;;;;;;4953477;28;20060;-81
2023/01/13 07:37:35;;;;;;;20.58;4.78;;;8.60;99.90;;;;;;4997541;28;20069;-83
2023/01/13 07:40:07;;;;;;;16.35;3.90;;;8.60;99.90;;;;;;4981053;28;20042;-81
2023/01/13 07:45:17;;;;;;;22.75;5.13;;;7.70;99.90;;;;;;4969870;28;20046;-82
2023/01/13 07:47:43;;;;;;;25.35;5.03;;;8.60;99.90;;;;;;4967519;28;20049;-82
2023/01/13 07:50:09;;;;;;;26.98;5.20;;;8.70;99.90;;;;;;4981101;28;20476;-83
2023/01/13 07:52:36;;;;;;;22.98;4.75;;;8.50;99.90;;;;;;4979716;28;20400;-84
2023/01/13 07:55:02;;;;;;;23.08;4.60;;;8.60;99.90;;;;;;4977487;28;20045;-81
2023/01/13 07:57:29;;;;;;;21.33;4.50;;;8.50;99.90;;;;;;4979493;28;20046;-84
2023/01/13 07:59:55;;;;;;;23.20;4.88;;;8.50;99.90;;;;;;4980276;28;20050;-80
2023/01/13 08:02:21;;;;;;;22.65;5.47;;;8.60;99.90;;;;;;4984070;28;20045;-81
2023/01/13 08:04:47;;;;;;;25.80;4.45;;;8.50;99.90;;;;;;4971000;28;20046;-80
2023/01/13 08:07:12;;;;;;;24.70;4.93;;;8.50;99.90;;;;;;4952479;28;20048;-80
2023/01/13 08:09:38;;;;;;;24.00;5.32;;;8.50;99.90;;;;;;4951900;28;20062;-81
2023/01/13 08:14:49;;;;;;;25.80;4.97;;;8.40;99.90;;;;;;4986411;28;20487;-81
2023/01/13 08:17:15;;;;;;;25.55;5.63;;;8.40;99.90;;;;;;4983535;28;20047;-82
2023/01/13 08:19:41;;;;;;;20.05;4.30;;;8.40;99.90;;;;;;4949094;28;22256;-78
2023/01/13 08:22:07;;;;;;;21.27;4.45;;;8.30;99.90;;;;;;4965964;28;20054;-81
2023/01/13 08:24:33;;;;;;;27.50;5.40;;;8.30;99.90;;;;;;4974621;28;20064;-81
2023/01/13 08:26:58;;;;;;;19.98;4.13;;;8.20;99.90;;;;;;4949725;28;20458;-80
2023/01/13 08:29:24;;;;;;;22.75;5.15;;;8.20;99.90;;;;;;4960845;28;20050;-80
2023/01/13 08:31:50;;;;;;;27.85;4.30;;;8.10;99.90;;;;;;4977336;28;20073;-82
2023/01/13 08:34:15;;;;;;;27.75;5.25;;;8.20;99.90;;;;;;4944548;28;20424;-83
2023/01/13 08:36:41;;;;;;;28.70;4.78;;;8.00;99.90;;;;;;4964958;28;20042;-82
2023/01/13 08:39:07;;;;;;;20.98;4.72;;;8.00;99.90;;;;;;4965175;28;20137;-80
2023/01/13 08:44:19;;;;;;;32.67;5.70;;;8.00;99.90;;;;;;4981468;28;20058;-81
2023/01/13 08:46:45;;;;;;;23.05;5.30;;;6.80;99.90;;;;;;4981128;28;20046;-81
2023/01/13 08:49:11;;;;;;;26.38;5.63;;;8.00;99.90;;;;;;4950165;28;20521;-82
2023/01/13 08:51:37;;;;;;;22.48;4.93;;;8.00;99.90;;;;;;4995100;28;20046;-80
2023/01/13 08:54:03;;;;;;;23.02;5.20;;;8.00;99.90;;;;;;4979629;28;20060;-81
2023/01/13 08:56:29;;;;;;;26.20;5.97;;;7.90;99.90;;;;;;4997093;28;20049;-80
2023/01/13 08:58:59;;;;;;;25.90;4.55;;;8.00;99.90;;;;;;4967970;28;20046;-81
2023/01/13 09:01:25;;;;;;;22.40;4.68;;;7.90;99.90;;;;;;4968662;28;20050;-80
2023/01/13 09:03:51;;;;;;;30.00;5.40;;;7.90;99.90;;;;;;4983009;28;20563;-81
2023/01/13 09:06:17;;;;;;;22.33;4.40;;;7.90;99.90;;;;;;4982702;28;20052;-82
2023/01/13 09:08:43;;;;;;;23.17;3.47;;;7.90;99.90;;;;;;4967238;28;20042;-81
2023/01/13 09:14:03;;;;;;;30.85;5.57;;;7.90;99.90;;;;;;4996136;28;20109;-81
2023/01/13 09:16:28;;;;;;;24.63;5.05;;;7.90;99.90;;;;;;4988520;28;20042;-81
2023/01/13 09:18:55;;;;;;;25.92;5.30;;;7.90;99.90;;;;;;4971990;28;20140;-82
2023/01/13 09:21:21;;;;;;;28.70;5.03;;;7.90;99.90;;;;;;4957972;28;20396;-83
2023/01/13 09:23:47;;;;;;;30.58;5.03;;;8.00;99.90;;;;;;4970729;28;20058;-82
2023/01/13 09:26:18;;;;;;;25.48;4.78;;;7.90;99.90;;;;;;4984320;28;20257;-81
2023/01/13 09:28:44;;;;;;;32.15;6.55;;;8.00;99.90;;;;;;4980677;28;20041;-84
2023/01/13 09:31:12;;;;;;;20.25;4.07;;;8.10;99.90;;;;;;4994877;28;20110;-82
2023/01/13 09:36:22;;;;;;;21.52;4.25;;;8.20;99.90;;;;;;4985109;28;20057;-79
2023/01/13 09:38:49;;;;;;;17.20;4.25;;;8.20;99.90;;;;;;4980828;28;20109;-80
2023/01/13 09:44:22;;;;;;;23.80;4.22;;;8.30;99.90;;;;;;4996353;28;20492;-78
2023/01/13 09:47:02;;;;;;;23.77;4.57;;;8.30;99.90;;;;;;4997348;28;20092;-80
2023/01/13 09:49:40;;;;;;;23.38;4.95;;;8.40;99.90;;;;;;4990168;28;20514;-80
2023/01/13 09:52:19;;;;;;;15.93;3.58;;;8.40;99.90;;;;;;4985934;28;20129;-79
2023/01/13 09:54:54;;;;;;;26.63;4.13;;;8.40;99.90;;;;;;4997156;28;20065;-82
2023/01/13 09:57:20;;;;;;;16.92;3.95;;;8.50;99.90;;;;;;4995105;28;20110;-80
2023/01/13 09:59:47;;;;;;;20.08;3.78;;;8.50;99.90;;;;;;4989308;28;20744;-83
2023/01/13 10:02:24;;;;;;;20.83;4.47;;;8.50;99.90;;;;;;4969381;28;20046;-82
2023/01/13 10:05:12;;;;;;;20.08;3.90;;;8.60;99.90;;;;;;4984542;28;20061;-83
2023/01/13 10:07:48;;;;;;;17.20;4.03;;;8.60;99.90;;;;;;4980984;28;20038;-82
2023/01/13 10:10:21;;;;;;;;;;;8.50;99.90;;;;;;4979365;28;20176;-83
2023/01/13 10:15:35;;;;;;;18.42;3.90;;;8.60;99.90;;;;;;4996424;28;20046;-81
2023/01/13 10:18:41;;;;;;;15.98;3.60;;;8.60;99.90;;;;;;4947959;28;20046;-80
2023/01/13 10:21:06;;;;;;;18.73;4.25;;;8.60;99.90;;;;;;4999320;28;20053;-78
2023/01/13 10:23:39;;;;;;;20.58;3.78;;;8.70;99.90;;;;;;4997524;28;20062;-79
2023/01/13 10:26:30;;;;;;;26.65;4.85;;;8.70;99.90;;;;;;4981689;28;21828;-79
2023/01/13 10:28:56;;;;;;;17.25;4.07;;;8.70;99.90;;;;;;4983770;28;20077;-79
2023/01/13 10:31:23;;;;;;;16.23;3.65;;;8.60;99.90;;;;;;4965824;28;20137;-79
2023/01/13 10:33:58;;;;;;;20.88;3.97;;;8.70;99.90;;;;;;4997893;28;20042;-79
2023/01/13 10:36:24;;;;;;;16.70;3.35;;;8.70;99.90;;;;;;4982067;28;20057;-80
2023/01/13 10:38:50;;;;;;;16.33;3.42;;;8.70;99.90;;;;;;4981704;28;20534;-79
2023/01/13 10:41:18;;;;;;;25.73;4.78;;;8.70;99.90;;;;;;4984014;28;20074;-78
2023/01/13 10:43:50;;;;;;;16.58;3.97;;;8.70;99.90;;;;;;4980659;28;20108;-82
2023/01/13 10:46:17;;;;;;;17.25;3.60;;;8.80;99.90;;;;;;4989744;28;20129;-79
2023/01/13 10:48:50;;;;;;;14.88;3.97;;;8.80;99.90;;;;;;4979040;28;20584;-81
2023/01/13 10:51:29;;;;;;;18.88;3.92;;;8.80;99.90;;;;;;4997580;28;20089;-81
2023/01/13 10:54:16;;;;;;;18.30;4.05;;;8.70;99.90;;;;;;4978536;28;20112;-80
2023/01/13 10:56:47;;;;;;;15.52;3.63;;;8.70;99.90;;;;;;4996789;28;20426;-80
2023/01/13 10:59:25;;;;;;;16.95;3.38;;;8.80;99.90;;;;;;4972971;28;20049;-82
2023/01/13 11:02:03;;;;;;;15.73;3.40;;;8.80;99.90;;;;;;4991245;28;20069;-81
2023/01/13 11:04:36;;;;;;;20.00;4.38;;;8.80;99.90;;;;;;4973826;28;20049;-81
2023/01/13 11:07:17;;;;;;;15.63;3.42;;;8.80;99.90;;;;;;4978294;28;20038;-79
2023/01/13 11:09:43;;;;;;;16.70;3.42;;;8.80;99.90;;;;;;4980621;28;20427;-79
2023/01/13 11:12:30;;;;;;;15.35;3.25;;;8.80;99.90;;;;;;4960264;28;20074;-80
2023/01/13 11:15:04;;;;;;;17.98;3.17;;;8.80;99.90;;;;;;4976838;28;20559;-80
2023/01/13 11:17:34;;;;;;;16.58;4.00;;;8.80;99.90;;;;;;4977747;28;20046;-81
2023/01/13 11:20:16;;;;;;;18.45;3.63;;;8.80;99.90;;;;;;4988966;28;20045;-82
2023/01/13 11:22:53;;;;;;;15.63;3.25;;;8.80;99.90;;;;;;4975875;28;20058;-82
2023/01/13 11:25:43;;;;;;;21.90;3.53;;;8.80;99.90;;;;;;4972704;28;20568;-85
2023/01/13 11:28:14;;;;;;;13.13;3.53;;;8.80;99.90;;;;;;4989094;28;20240;-83
2023/01/13 11:31:20;;;;;;;18.67;3.60;;;8.90;99.90;;;;;;4994651;28;20046;-83
2023/01/13 11:34:29;;;;;;;17.25;3.60;;;8.90;99.90;;;;;;4979423;28;20137;-81
2023/01/13 11:36:57;;;;;;;16.08;3.25;;;8.90;99.90;;;;;;4978794;28;20065;-83
2023/01/13 11:39:38;;;;;;;16.75;3.60;;;8.90;99.90;;;;;;4984188;28;20069;-82
2023/01/13 11:42:20;;;;;;;16.42;3.30;;;9.00;99.90;;;;;;5001010;28;20184;-83
2023/01/13 11:45:17;;;;;;;16.40;3.30;;;9.00;99.90;;;;;;4995094;28;20140;-80
2023/01/13 11:47:48;;;;;;;;;;;9.00;99.90;;;;;;4997765;28;20129;-82
2023/01/13 11:50:41;;;;;;;17.15;3.53;;;9.00;99.90;;;;;;4983131;28;20208;-80
2023/01/13 11:53:47;;;;;;;16.70;3.80;;;9.00;99.90;;;;;;4936123;28;20165;-80
2023/01/13 11:56:31;;;;;;;15.07;3.33;;;9.00;99.90;;;;;;4981164;28;20584;-83
2023/01/13 11:59:27;;;;;;;20.13;3.78;;;9.00;99.90;;;;;;4981967;28;21233;-83
2023/01/13 12:02:30;;;;;;;14.27;4.07;;;9.20;99.90;;;;;;4993991;28;20735;-80
2023/01/13 12:05:22;;;;;;;16.55;3.22;;;9.00;99.90;;;;;;4981161;28;20124;-81
2023/01/13 12:07:54;;;;;;;13.63;2.70;;;9.00;99.90;;;;;;4983038;28;20049;-80
2023/01/13 12:11:09;;;;;;;13.80;3.65;;;9.00;99.90;;;;;;4975314;28;20033;-82
2023/01/13 12:13:53;;;;;;;14.20;3.60;;;10.50;99.90;;;;;;4976062;28;20057;-80
2023/01/13 12:16:31;;;;;;;13.05;2.90;;;8.90;99.90;;;;;;4978075;28;20050;-81
2023/01/13 12:19:23;;;;;;;15.73;2.97;;;7.60;99.90;;;;;;4989939;28;20469;-80
2023/01/13 12:22:10;;;;;;;18.38;3.25;;;8.90;99.90;;;;;;4990878;28;20045;-79
2023/01/13 12:25:00;;;;;;;15.05;3.13;;;9.00;99.90;;;;;;4980003;28;20068;-79
2023/01/13 12:27:25;;;;;;;17.05;3.28;;;8.90;99.90;;;;;;4995201;28;20169;-79
2023/01/13 12:29:55;;;;;;;16.20;3.30;;;9.00;99.90;;;;;;4997786;28;20046;-78
2023/01/13 12:32:35;;;;;;;15.15;3.20;;;9.00;99.90;;;;;;4976624;28;20132;-79
2023/01/13 12:35:19;;;;;;;15.40;3.45;;;9.00;99.90;;;;;;4982566;28;20049;-79
2023/01/13 12:38:02;;;;;;;12.77;2.75;;;9.00;99.90;;;;;;4983386;28;20038;-79
2023/01/13 12:41:05;;;;;;;18.92;3.97;;;9.10;99.90;;;;;;4981943;28;20169;-79
2023/01/13 12:46:22;;;;;;;20.00;4.47;;;8.20;99.90;;;;;;4994496;28;20172;-80
2023/01/13 12:48:55;;;;;;;14.18;3.33;;;9.10;99.90;;;;;;4983008;28;20042;-81
2023/01/13 12:51:24;;;;;;;12.98;2.85;;;9.10;99.90;;;;;;4997294;28;20050;-82
2023/01/13 12:53:50;;;;;;;14.10;3.30;;;9.10;99.90;;;;;;4992963;28;20076;-81
2023/01/13 12:56:44;;;;;;;16.60;4.15;;;9.20;99.90;;;;;;4983842;28;20078;-79
2023/01/13 12:59:16;;;;;;;15.38;2.95;;;9.10;99.90;;;;;;4998707;28;20042;-82
2023/01/13 13:01:46;;;;;;;14.77;3.03;;;9.10;99.90;;;;;;5000466;28;20731;-81
2023/01/13 13:04:40;;;;;;;16.77;3.53;;;9.10;99.90;;;;;;4982577;28;20103;-82
2023/01/13 13:07:28;;;;;;;17.73;3.47;;;9.10;99.90;;;;;;4999690;28;20396;-81
2023/01/13 13:10:01;;;;;;;15.77;3.17;;;9.10;99.90;;;;;;4996661;28;20323;-81
2023/01/13 13:15:23;;;;;;;13.23;3.08;;;9.10;99.90;;;;;;4993904;28;20054;-80
2023/01/13 13:17:58;;;;;;;10.88;3.33;;;9.10;99.90;;;;;;4999093;28;20129;-81
2023/01/13 13:21:00;;;;;;;15.93;3.10;;;9.10;99.90;;;;;;4982347;28;20062;-82
2023/01/13 13:23:32;;;;;;;20.13;3.70;;;9.10;99.90;;;;;;4979213;28;20075;-82
2023/01/13 13:26:18;;;;;;;16.00;3.28;;;9.20;99.90;;;;;;4997094;28;20392;-82
2023/01/13 13:28:52;;;;;;;15.73;3.33;;;9.10;99.90;;;;;;4993615;28;20050;-80
2023/01/13 13:31:39;;;;;;;12.13;2.75;;;9.20;99.90;;;;;;4999193;28;20050;-80
2023/01/13 13:34:23;;;;;;;16.20;2.97;;;9.10;99.90;;;;;;4981766;28;20050;-81
2023/01/13 13:37:09;;;;;;;17.42;4.43;;;9.10;99.90;;;;;;4981642;28;20057;-79
2023/01/13 13:48:19;;;;;;;12.88;3.20;;;9.00;99.90;;;;;;4993666;28;20045;-82
2023/01/13 13:50:56;;;;;;;16.55;4.10;;;9.00;99.90;;;;;;4966375;28;20483;-80
2023/01/13 13:53:26;;;;;;;16.67;3.60;;;9.10;99.90;;;;;;4977572;28;20156;-79
2023/01/13 13:55:56;;;;;;;18.95;3.55;;;9.10;99.90;;;;;;4979722;28;20103;-80
2023/01/13 13:58:25;;;;;;;12.10;3.03;;;9.10;99.90;;;;;;4976716;28;20058;-80
2023/01/13 14:00:52;;;;;;;13.68;3.10;;;9.10;99.90;;;;;;4983756;28;20141;-79
2023/01/13 14:03:25;;;;;;;14.30;2.97;;;9.10;99.90;;;;;;4994942;28;20049;-81
2023/01/13 14:05:59;;;;;;;23.52;3.33;;;9.10;99.90;;;;;;4980889;28;20112;-80
2023/01/13 14:08:32;;;;;;;17.42;3.78;;;9.10;99.90;;;;;;4975961;28;20061;-80
2023/01/13 14:10:58;;;;;;;17.65;4.22;;;9.10;99.90;;;;;;4980270;28;20202;-81
2023/01/13 14:13:30;;;;;;;13.90;3.05;;;9.00;99.90;;;;;;4966618;28;20495;-82
2023/01/13 14:15:57;;;;;;;10.68;2.97;;;9.00;99.90;;;;;;4978591;28;20116;-80
2023/01/13 14:18:25;;;;;;;14.38;3.25;;;9.10;99.90;;;;;;4980684;28;20526;-80
2023/01/13 14:21:00;;;;;;;13.77;3.72;;;9.00;99.90;;;;;;4995635;28;20046;-82
2023/01/13 14:23:29;;;;;;;14.38;3.17;;;9.00;99.90;;;;;;4990683;28;20057;-80
2023/01/13 14:26:08;;;;;;;13.77;3.20;;;9.00;99.90;;;;;;4997621;28;20046;-82
2023/01/13 14:28:43;;;;;;;11.85;2.83;;;9.00;99.90;;;;;;4995331;28;20161;-80
2023/01/13 14:31:11;;;;;;;17.57;3.43;;;9.00;99.90;;;;;;4992033;28;20058;-81